<?xml version="1.0" encoding="UTF-8" standalone="no" ?>
<gpx xmlns="http://www.topografix.com/GPX/1/1" xmlns:xsi="http://www.w3.org/2001/XMLSchema-instance" xsi:schemaLocation="http://www.topografix.com/GPX/1/1 http://www.topografix.com/GPX/1/1/gpx.xsd" version="1.1" creator="VisuGPX - https://www.visugpx.com">
  <metadata>
    <name>Turquie_100points</name>
  </metadata>
  <trk>
    <name><![CDATA[Tour d'Europe: étape 531]]></name>
    <extensions>
      <line xmlns="http://www.topografix.com/GPX/gpx_style/0/2">
        <color>008800</color>
        <width>4</width>
      </line>
    </extensions>
    <trkseg>
      <trkpt lat="39.61303" lon="40.97703">
        <ele>1948.195312</ele>
        <time>2021-12-11T06:21:00.707Z</time>
      </trkpt>
      <trkpt lat="39.61218" lon="40.97722">
        <ele>1950.314776</ele>
        <time>2021-12-11T06:26:33.367Z</time>
      </trkpt>
      <trkpt lat="39.61015" lon="40.97807">
        <ele>1959.255095</ele>
        <time>2021-12-11T06:27:47.376Z</time>
      </trkpt>
      <trkpt lat="39.60826" lon="40.97873">
        <ele>1948.204753</ele>
        <time>2021-12-11T06:28:51.363Z</time>
      </trkpt>
      <trkpt lat="39.60635" lon="40.97771">
        <ele>1925.809233</ele>
        <time>2021-12-11T06:29:44.374Z</time>
      </trkpt>
      <trkpt lat="39.60425" lon="40.97547">
        <ele>1916.154477</ele>
        <time>2021-12-11T06:30:24.350Z</time>
      </trkpt>
      <trkpt lat="39.60245" lon="40.97368">
        <ele>1914.778911</ele>
        <time>2021-12-11T06:31:15.352Z</time>
      </trkpt>
      <trkpt lat="39.60053" lon="40.97176">
        <ele>1917.337684</ele>
        <time>2021-12-11T06:32:15.336Z</time>
      </trkpt>
      <trkpt lat="39.59894" lon="40.97015">
        <ele>1924.748086</ele>
        <time>2021-12-11T06:33:41.364Z</time>
      </trkpt>
      <trkpt lat="39.5974" lon="40.96859">
        <ele>1933.759836</ele>
        <time>2021-12-11T06:35:32.369Z</time>
      </trkpt>
      <trkpt lat="39.59584" lon="40.96702">
        <ele>1940.091979</ele>
        <time>2021-12-11T06:37:01.339Z</time>
      </trkpt>
      <trkpt lat="39.5942" lon="40.96533">
        <ele>1948.75481</ele>
        <time>2021-12-11T06:38:51.371Z</time>
      </trkpt>
      <trkpt lat="39.59272" lon="40.96363">
        <ele>1960.861526</ele>
        <time>2021-12-11T06:41:04.403Z</time>
      </trkpt>
      <trkpt lat="39.59147" lon="40.96163">
        <ele>1967.702119</ele>
        <time>2021-12-11T06:42:54.358Z</time>
      </trkpt>
      <trkpt lat="39.59043" lon="40.95913">
        <ele>1967.715713</ele>
        <time>2021-12-11T06:44:10.349Z</time>
      </trkpt>
      <trkpt lat="39.58977" lon="40.95661">
        <ele>1969.976936</ele>
        <time>2021-12-11T06:45:14.383Z</time>
      </trkpt>
      <trkpt lat="39.58946" lon="40.95405">
        <ele>1976.401655</ele>
        <time>2021-12-11T06:46:36.361Z</time>
      </trkpt>
      <trkpt lat="39.58946" lon="40.95142">
        <ele>1976.588488</ele>
        <time>2021-12-11T06:47:56.371Z</time>
      </trkpt>
      <trkpt lat="39.5899" lon="40.94851">
        <ele>1972.818247</ele>
        <time>2021-12-11T06:48:50.366Z</time>
      </trkpt>
      <trkpt lat="39.59063" lon="40.94564">
        <ele>1967.076561</ele>
        <time>2021-12-11T06:49:30.372Z</time>
      </trkpt>
      <trkpt lat="39.59152" lon="40.94209">
        <ele>1951.712247</ele>
        <time>2021-12-11T06:50:03.374Z</time>
      </trkpt>
      <trkpt lat="39.59219" lon="40.93966">
        <ele>1940.928558</ele>
        <time>2021-12-11T06:50:23.364Z</time>
      </trkpt>
      <trkpt lat="39.59286" lon="40.93714">
        <ele>1931.590942</ele>
        <time>2021-12-11T06:50:43.394Z</time>
      </trkpt>
      <trkpt lat="39.59341" lon="40.93473">
        <ele>1924.34879</ele>
        <time>2021-12-11T06:51:03.361Z</time>
      </trkpt>
      <trkpt lat="39.59421" lon="40.93163">
        <ele>1920.567324</ele>
        <time>2021-12-11T06:51:38.366Z</time>
      </trkpt>
      <trkpt lat="39.59492" lon="40.92877">
        <ele>1920.369399</ele>
        <time>2021-12-11T06:52:28.365Z</time>
      </trkpt>
      <trkpt lat="39.59581" lon="40.9253">
        <ele>1910.314859</ele>
        <time>2021-12-11T06:53:03.377Z</time>
      </trkpt>
      <trkpt lat="39.59643" lon="40.92279">
        <ele>1901.180112</ele>
        <time>2021-12-11T06:53:25.376Z</time>
      </trkpt>
      <trkpt lat="39.59671" lon="40.92">
        <ele>1889.524128</ele>
        <time>2021-12-11T06:53:45.371Z</time>
      </trkpt>
      <trkpt lat="39.59647" lon="40.9169">
        <ele>1880.893343</ele>
        <time>2021-12-11T06:54:09.370Z</time>
      </trkpt>
      <trkpt lat="39.59541" lon="40.91353">
        <ele>1875.818931</ele>
        <time>2021-12-11T06:54:49.399Z</time>
      </trkpt>
      <trkpt lat="39.59326" lon="40.91024">
        <ele>1866.032001</ele>
        <time>2021-12-11T06:55:29.397Z</time>
      </trkpt>
      <trkpt lat="39.59034" lon="40.90803">
        <ele>1858.880359</ele>
        <time>2021-12-11T06:56:09.364Z</time>
      </trkpt>
      <trkpt lat="39.58751" lon="40.90623">
        <ele>1853.954159</ele>
        <time>2021-12-11T06:56:49.362Z</time>
      </trkpt>
      <trkpt lat="39.58477" lon="40.90478">
        <ele>1840.918779</ele>
        <time>2021-12-11T06:57:29.371Z</time>
      </trkpt>
      <trkpt lat="39.58215" lon="40.90329">
        <ele>1824.018273</ele>
        <time>2021-12-11T06:58:09.366Z</time>
      </trkpt>
      <trkpt lat="39.57921" lon="40.9025">
        <ele>1806.936926</ele>
        <time>2021-12-11T06:58:49.370Z</time>
      </trkpt>
      <trkpt lat="39.57625" lon="40.90343">
        <ele>1795.907228</ele>
        <time>2021-12-11T06:59:27.370Z</time>
      </trkpt>
      <trkpt lat="39.57417" lon="40.90561">
        <ele>1791.094335</ele>
        <time>2021-12-11T07:00:01.354Z</time>
      </trkpt>
      <trkpt lat="39.57275" lon="40.90791">
        <ele>1789.852583</ele>
        <time>2021-12-11T07:00:47.370Z</time>
      </trkpt>
      <trkpt lat="39.5714" lon="40.91013">
        <ele>1795.429542</ele>
        <time>2021-12-11T07:01:53.373Z</time>
      </trkpt>
      <trkpt lat="39.57045" lon="40.91255">
        <ele>1803.837155</ele>
        <time>2021-12-11T07:03:31.370Z</time>
      </trkpt>
      <trkpt lat="39.57" lon="40.9152">
        <ele>1809.538313</ele>
        <time>2021-12-11T07:04:54.361Z</time>
      </trkpt>
      <trkpt lat="39.56917" lon="40.9177">
        <ele>1811.96512</ele>
        <time>2021-12-11T07:06:13.373Z</time>
      </trkpt>
      <trkpt lat="39.56807" lon="40.91991">
        <ele>1812.63862</ele>
        <time>2021-12-11T07:07:17.397Z</time>
      </trkpt>
      <trkpt lat="39.56688" lon="40.92225">
        <ele>1814.262876</ele>
        <time>2021-12-11T07:08:17.374Z</time>
      </trkpt>
      <trkpt lat="39.56557" lon="40.92445">
        <ele>1816.182792</ele>
        <time>2021-12-11T07:09:17.377Z</time>
      </trkpt>
      <trkpt lat="39.56401" lon="40.92622">
        <ele>1817.982001</ele>
        <time>2021-12-11T07:10:17.372Z</time>
      </trkpt>
      <trkpt lat="39.56227" lon="40.92778">
        <ele>1819.628811</ele>
        <time>2021-12-11T07:11:17.366Z</time>
      </trkpt>
      <trkpt lat="39.56051" lon="40.92934">
        <ele>1821.725141</ele>
        <time>2021-12-11T07:12:17.391Z</time>
      </trkpt>
      <trkpt lat="39.55879" lon="40.93089">
        <ele>1822.731802</ele>
        <time>2021-12-11T07:13:17.373Z</time>
      </trkpt>
      <trkpt lat="39.55704" lon="40.93244">
        <ele>1826.011135</ele>
        <time>2021-12-11T07:14:17.390Z</time>
      </trkpt>
      <trkpt lat="39.55542" lon="40.93402">
        <ele>1828.191161</ele>
        <time>2021-12-11T07:15:17.391Z</time>
      </trkpt>
      <trkpt lat="39.55409" lon="40.93611">
        <ele>1830.962357</ele>
        <time>2021-12-11T07:16:17.371Z</time>
      </trkpt>
      <trkpt lat="39.55266" lon="40.93848">
        <ele>1831.143208</ele>
        <time>2021-12-11T07:17:17.361Z</time>
      </trkpt>
      <trkpt lat="39.55091" lon="40.94029">
        <ele>1834.192004</ele>
        <time>2021-12-11T07:18:17.370Z</time>
      </trkpt>
      <trkpt lat="39.54913" lon="40.94177">
        <ele>1838.357063</ele>
        <time>2021-12-11T07:19:18.397Z</time>
      </trkpt>
      <trkpt lat="39.54757" lon="40.94331">
        <ele>1841.725743</ele>
        <time>2021-12-11T07:20:19.381Z</time>
      </trkpt>
      <trkpt lat="39.54605" lon="40.94507">
        <ele>1844.631686</ele>
        <time>2021-12-11T07:21:42.406Z</time>
      </trkpt>
      <trkpt lat="39.54457" lon="40.94679">
        <ele>1847.243957</ele>
        <time>2021-12-11T07:23:03.372Z</time>
      </trkpt>
      <trkpt lat="39.54273" lon="40.94831">
        <ele>1846.990306</ele>
        <time>2021-12-11T07:24:05.369Z</time>
      </trkpt>
      <trkpt lat="39.54069" lon="40.94971">
        <ele>1849.288429</ele>
        <time>2021-12-11T07:25:05.366Z</time>
      </trkpt>
      <trkpt lat="39.53881" lon="40.95101">
        <ele>1850.216779</ele>
        <time>2021-12-11T07:26:05.375Z</time>
      </trkpt>
      <trkpt lat="39.537" lon="40.95225">
        <ele>1851.137261</ele>
        <time>2021-12-11T07:27:05.393Z</time>
      </trkpt>
      <trkpt lat="39.53524" lon="40.95346">
        <ele>1854.527391</ele>
        <time>2021-12-11T07:28:09.381Z</time>
      </trkpt>
      <trkpt lat="39.53358" lon="40.95486">
        <ele>1859.267971</ele>
        <time>2021-12-11T07:29:14.380Z</time>
      </trkpt>
      <trkpt lat="39.53196" lon="40.9562">
        <ele>1863.490852</ele>
        <time>2021-12-11T07:30:15.367Z</time>
      </trkpt>
      <trkpt lat="39.52997" lon="40.95748">
        <ele>1873.745353</ele>
        <time>2021-12-11T07:31:38.416Z</time>
      </trkpt>
      <trkpt lat="39.52827" lon="40.95899">
        <ele>1887.091343</ele>
        <time>2021-12-11T07:33:06.377Z</time>
      </trkpt>
      <trkpt lat="39.52659" lon="40.96077">
        <ele>1886.238244</ele>
        <time>2021-12-11T07:34:26.376Z</time>
      </trkpt>
      <trkpt lat="39.52558" lon="40.96298">
        <ele>1890.271326</ele>
        <time>2021-12-11T07:36:26.386Z</time>
      </trkpt>
      <trkpt lat="39.52557" lon="40.96547">
        <ele>1898.894131</ele>
        <time>2021-12-11T07:38:21.368Z</time>
      </trkpt>
      <trkpt lat="39.52452" lon="40.96768">
        <ele>1900.044535</ele>
        <time>2021-12-11T07:39:58.371Z</time>
      </trkpt>
      <trkpt lat="39.52339" lon="40.97003">
        <ele>1897.669854</ele>
        <time>2021-12-11T07:40:58.361Z</time>
      </trkpt>
      <trkpt lat="39.52189" lon="40.97211">
        <ele>1899.864547</ele>
        <time>2021-12-11T07:41:46.361Z</time>
      </trkpt>
      <trkpt lat="39.52035" lon="40.97395">
        <ele>1906.035416</ele>
        <time>2021-12-11T07:42:59.386Z</time>
      </trkpt>
      <trkpt lat="39.51872" lon="40.97577">
        <ele>1910.247979</ele>
        <time>2021-12-11T07:44:19.383Z</time>
      </trkpt>
      <trkpt lat="39.51702" lon="40.97719">
        <ele>1914.535548</ele>
        <time>2021-12-11T07:45:58.368Z</time>
      </trkpt>
      <trkpt lat="39.51517" lon="40.97829">
        <ele>1914.125123</ele>
        <time>2021-12-11T07:47:31.380Z</time>
      </trkpt>
      <trkpt lat="39.51316" lon="40.97924">
        <ele>1915.968417</ele>
        <time>2021-12-11T07:48:45.354Z</time>
      </trkpt>
      <trkpt lat="39.51161" lon="40.98105">
        <ele>1920.456315</ele>
        <time>2021-12-11T07:50:06.378Z</time>
      </trkpt>
      <trkpt lat="39.51033" lon="40.983">
        <ele>1923.660625</ele>
        <time>2021-12-11T07:51:35.356Z</time>
      </trkpt>
      <trkpt lat="39.50877" lon="40.98452">
        <ele>1930.118668</ele>
        <time>2021-12-11T07:53:22.382Z</time>
      </trkpt>
      <trkpt lat="39.5076" lon="40.9866">
        <ele>1938.272537</ele>
        <time>2021-12-11T07:54:49.391Z</time>
      </trkpt>
      <trkpt lat="39.50619" lon="40.9884">
        <ele>1944.594469</ele>
        <time>2021-12-11T07:56:18.410Z</time>
      </trkpt>
      <trkpt lat="39.50497" lon="40.99033">
        <ele>1950.393432</ele>
        <time>2021-12-11T07:57:55.391Z</time>
      </trkpt>
      <trkpt lat="39.50429" lon="40.99275">
        <ele>1959.682738</ele>
        <time>2021-12-11T07:59:38.378Z</time>
      </trkpt>
      <trkpt lat="39.50336" lon="40.99505">
        <ele>1963.464731</ele>
        <time>2021-12-11T08:01:21.387Z</time>
      </trkpt>
      <trkpt lat="39.50176" lon="40.99657">
        <ele>1968.398551</ele>
        <time>2021-12-11T08:03:04.419Z</time>
      </trkpt>
      <trkpt lat="39.49992" lon="40.99749">
        <ele>1974.965095</ele>
        <time>2021-12-11T08:04:48.401Z</time>
      </trkpt>
      <trkpt lat="39.49824" lon="40.99873">
        <ele>1986.273591</ele>
        <time>2021-12-11T08:06:46.384Z</time>
      </trkpt>
      <trkpt lat="39.497" lon="41.00074">
        <ele>1993.856271</ele>
        <time>2021-12-11T08:20:25.375Z</time>
      </trkpt>
      <trkpt lat="39.49557" lon="41.00245">
        <ele>2001.737472</ele>
        <time>2021-12-11T08:22:11.389Z</time>
      </trkpt>
      <trkpt lat="39.49387" lon="41.00359">
        <ele>2015.970829</ele>
        <time>2021-12-11T08:24:24.383Z</time>
      </trkpt>
      <trkpt lat="39.49268" lon="41.00571">
        <ele>2026.42666</ele>
        <time>2021-12-11T08:26:56.401Z</time>
      </trkpt>
      <trkpt lat="39.49245" lon="41.00813">
        <ele>2042.412742</ele>
        <time>2021-12-11T08:29:32.407Z</time>
      </trkpt>
      <trkpt lat="39.49096" lon="41.009">
        <ele>2064.209927</ele>
        <time>2021-12-11T08:32:16.388Z</time>
      </trkpt>
      <trkpt lat="39.48949" lon="41.01028">
        <ele>2082.750112</ele>
        <time>2021-12-11T08:35:03.394Z</time>
      </trkpt>
      <trkpt lat="39.48828" lon="41.01212">
        <ele>2097.774291</ele>
        <time>2021-12-11T08:37:54.387Z</time>
      </trkpt>
      <trkpt lat="39.48785" lon="41.0144">
        <ele>2112.295449</ele>
        <time>2021-12-11T08:40:37.408Z</time>
      </trkpt>
      <trkpt lat="39.48621" lon="41.0155">
        <ele>2127.205567</ele>
        <time>2021-12-11T08:43:25.449Z</time>
      </trkpt>
      <trkpt lat="39.48478" lon="41.01716">
        <ele>2136.504986</ele>
        <time>2021-12-11T08:45:42.414Z</time>
      </trkpt>
      <trkpt lat="39.48347" lon="41.01896">
        <ele>2149.91227</ele>
        <time>2021-12-11T08:47:55.403Z</time>
      </trkpt>
      <trkpt lat="39.48212" lon="41.02081">
        <ele>2161.986371</ele>
        <time>2021-12-11T08:50:14.408Z</time>
      </trkpt>
      <trkpt lat="39.48128" lon="41.02286">
        <ele>2175.999622</ele>
        <time>2021-12-11T08:52:49.390Z</time>
      </trkpt>
      <trkpt lat="39.48066" lon="41.02516">
        <ele>2196.087728</ele>
        <time>2021-12-11T08:55:54.401Z</time>
      </trkpt>
      <trkpt lat="39.48004" lon="41.02747">
        <ele>2204.623862</ele>
        <time>2021-12-11T08:59:04.434Z</time>
      </trkpt>
      <trkpt lat="39.47903" lon="41.02944">
        <ele>2226.437227</ele>
        <time>2021-12-11T09:02:21.411Z</time>
      </trkpt>
      <trkpt lat="39.47747" lon="41.03092">
        <ele>2243.168379</ele>
        <time>2021-12-11T09:09:36.420Z</time>
      </trkpt>
      <trkpt lat="39.47535" lon="41.03339">
        <ele>2267.875721</ele>
        <time>2021-12-11T09:24:17.481Z</time>
      </trkpt>
      <trkpt lat="39.47223" lon="41.04004">
        <ele>2315.925102</ele>
        <time>2021-12-11T09:34:08.491Z</time>
      </trkpt>
      <trkpt lat="39.47079" lon="41.04175">
        <ele>2320.958706</ele>
        <time>2021-12-11T09:39:37.518Z</time>
      </trkpt>
      <trkpt lat="39.46989" lon="41.04436">
        <ele>2314.834648</ele>
        <time>2021-12-11T09:40:19.484Z</time>
      </trkpt>
      <trkpt lat="39.46975" lon="41.04811">
        <ele>2302.616834</ele>
        <time>2021-12-11T09:40:59.483Z</time>
      </trkpt>
      <trkpt lat="39.47085" lon="41.05135">
        <ele>2283.017537</ele>
        <time>2021-12-11T09:41:39.493Z</time>
      </trkpt>
      <trkpt lat="39.47074" lon="41.05421">
        <ele>2244.811162</ele>
        <time>2021-12-11T09:42:19.507Z</time>
      </trkpt>
      <trkpt lat="39.46842" lon="41.05368">
        <ele>2204.319441</ele>
        <time>2021-12-11T09:42:59.518Z</time>
      </trkpt>
      <trkpt lat="39.46643" lon="41.05143">
        <ele>2171.675365</ele>
        <time>2021-12-11T09:43:39.493Z</time>
      </trkpt>
      <trkpt lat="39.46467" lon="41.04936">
        <ele>2152.336696</ele>
        <time>2021-12-11T09:44:19.506Z</time>
      </trkpt>
      <trkpt lat="39.46232" lon="41.05041">
        <ele>2142.309548</ele>
        <time>2021-12-11T09:44:59.488Z</time>
      </trkpt>
      <trkpt lat="39.46073" lon="41.05267">
        <ele>2124.390121</ele>
        <time>2021-12-11T09:45:41.490Z</time>
      </trkpt>
      <trkpt lat="39.45915" lon="41.05453">
        <ele>2112.67315</ele>
        <time>2021-12-11T09:46:23.481Z</time>
      </trkpt>
      <trkpt lat="39.45765" lon="41.05614">
        <ele>2107.525173</ele>
        <time>2021-12-11T09:47:03.503Z</time>
      </trkpt>
      <trkpt lat="39.45584" lon="41.05729">
        <ele>2103.252874</ele>
        <time>2021-12-11T09:47:43.495Z</time>
      </trkpt>
      <trkpt lat="39.45401" lon="41.05868">
        <ele>2099.078343</ele>
        <time>2021-12-11T09:48:25.536Z</time>
      </trkpt>
      <trkpt lat="39.45187" lon="41.05865">
        <ele>2081.951759</ele>
        <time>2021-12-11T09:49:05.522Z</time>
      </trkpt>
      <trkpt lat="39.45012" lon="41.05735">
        <ele>2058.669133</ele>
        <time>2021-12-11T09:49:45.502Z</time>
      </trkpt>
      <trkpt lat="39.44794" lon="41.05707">
        <ele>2038.888231</ele>
        <time>2021-12-11T09:50:25.512Z</time>
      </trkpt>
      <trkpt lat="39.44573" lon="41.05632">
        <ele>2013.017117</ele>
        <time>2021-12-11T09:51:05.549Z</time>
      </trkpt>
      <trkpt lat="39.44323" lon="41.05531">
        <ele>1991.767061</ele>
        <time>2021-12-11T09:51:45.477Z</time>
      </trkpt>
      <trkpt lat="39.44049" lon="41.05498">
        <ele>1979.954664</ele>
        <time>2021-12-11T09:52:25.491Z</time>
      </trkpt>
      <trkpt lat="39.43843" lon="41.0562">
        <ele>1976.979543</ele>
        <time>2021-12-11T09:53:05.490Z</time>
      </trkpt>
      <trkpt lat="39.4367" lon="41.05823">
        <ele>1974.961041</ele>
        <time>2021-12-11T09:53:45.492Z</time>
      </trkpt>
      <trkpt lat="39.4348" lon="41.05971">
        <ele>1965.960297</ele>
        <time>2021-12-11T09:54:27.486Z</time>
      </trkpt>
      <trkpt lat="39.43224" lon="41.05975">
        <ele>1951.969619</ele>
        <time>2021-12-11T09:55:11.509Z</time>
      </trkpt>
      <trkpt lat="39.43018" lon="41.05961">
        <ele>1952.039939</ele>
        <time>2021-12-11T09:56:19.520Z</time>
      </trkpt>
      <trkpt lat="39.42827" lon="41.059">
        <ele>1962.956022</ele>
        <time>2021-12-11T09:58:08.498Z</time>
      </trkpt>
      <trkpt lat="39.42678" lon="41.05746">
        <ele>1970.23681</ele>
        <time>2021-12-11T10:00:11.533Z</time>
      </trkpt>
      <trkpt lat="39.42533" lon="41.05576">
        <ele>1972.50236</ele>
        <time>2021-12-11T10:01:59.509Z</time>
      </trkpt>
      <trkpt lat="39.42333" lon="41.0549">
        <ele>1970.54183</ele>
        <time>2021-12-11T10:03:02.510Z</time>
      </trkpt>
      <trkpt lat="39.42076" lon="41.05471">
        <ele>1960.517007</ele>
        <time>2021-12-11T10:03:36.525Z</time>
      </trkpt>
      <trkpt lat="39.41837" lon="41.05441">
        <ele>1948.670333</ele>
        <time>2021-12-11T10:04:02.518Z</time>
      </trkpt>
      <trkpt lat="39.41629" lon="41.05424">
        <ele>1938.155594</ele>
        <time>2021-12-11T10:04:22.508Z</time>
      </trkpt>
      <trkpt lat="39.41426" lon="41.05415">
        <ele>1928.254166</ele>
        <time>2021-12-11T10:04:42.519Z</time>
      </trkpt>
      <trkpt lat="39.41209" lon="41.05406">
        <ele>1919.156327</ele>
        <time>2021-12-11T10:05:02.523Z</time>
      </trkpt>
      <trkpt lat="39.40982" lon="41.05386">
        <ele>1909.725115</ele>
        <time>2021-12-11T10:05:22.520Z</time>
      </trkpt>
      <trkpt lat="39.40769" lon="41.05274">
        <ele>1898.991421</ele>
        <time>2021-12-11T10:05:43.519Z</time>
      </trkpt>
      <trkpt lat="39.40617" lon="41.05091">
        <ele>1888.822566</ele>
        <time>2021-12-11T10:06:03.522Z</time>
      </trkpt>
      <trkpt lat="39.40491" lon="41.04869">
        <ele>1881.595911</ele>
        <time>2021-12-11T10:06:23.511Z</time>
      </trkpt>
      <trkpt lat="39.40383" lon="41.04644">
        <ele>1878.749834</ele>
        <time>2021-12-11T10:06:43.508Z</time>
      </trkpt>
      <trkpt lat="39.40256" lon="41.04334">
        <ele>1877.48168</ele>
        <time>2021-12-11T10:07:21.520Z</time>
      </trkpt>
      <trkpt lat="39.40166" lon="41.0411">
        <ele>1876.830839</ele>
        <time>2021-12-11T10:08:01.513Z</time>
      </trkpt>
      <trkpt lat="39.40068" lon="41.03896">
        <ele>1875.88343</ele>
        <time>2021-12-11T10:08:42.525Z</time>
      </trkpt>
      <trkpt lat="39.39928" lon="41.0366">
        <ele>1878.137582</ele>
        <time>2021-12-11T10:09:40.532Z</time>
      </trkpt>
      <trkpt lat="39.39781" lon="41.03453">
        <ele>1878.578618</ele>
        <time>2021-12-11T10:10:32.559Z</time>
      </trkpt>
      <trkpt lat="39.39677" lon="41.0321">
        <ele>1878.440963</ele>
        <time>2021-12-11T10:11:21.537Z</time>
      </trkpt>
      <trkpt lat="39.39571" lon="41.02958">
        <ele>1876.531732</ele>
        <time>2021-12-11T10:12:10.532Z</time>
      </trkpt>
      <trkpt lat="39.39523" lon="41.02626">
        <ele>1868.141261</ele>
        <time>2021-12-11T10:12:50.507Z</time>
      </trkpt>
      <trkpt lat="39.39488" lon="41.02325">
        <ele>1866.065414</ele>
        <time>2021-12-11T10:13:34.540Z</time>
      </trkpt>
      <trkpt lat="39.39415" lon="41.02103">
        <ele>1865.51495</ele>
        <time>2021-12-11T10:14:14.541Z</time>
      </trkpt>
      <trkpt lat="39.39266" lon="41.01874">
        <ele>1865.118611</ele>
        <time>2021-12-11T10:15:14.528Z</time>
      </trkpt>
      <trkpt lat="39.39166" lon="41.01652">
        <ele>1866.493831</ele>
        <time>2021-12-11T10:16:14.532Z</time>
      </trkpt>
      <trkpt lat="39.39089" lon="41.01415">
        <ele>1869.584723</ele>
        <time>2021-12-11T10:17:19.533Z</time>
      </trkpt>
      <trkpt lat="39.39009" lon="41.01179">
        <ele>1874.657763</ele>
        <time>2021-12-11T10:18:25.534Z</time>
      </trkpt>
      <trkpt lat="39.38901" lon="41.00951">
        <ele>1874.869191</ele>
        <time>2021-12-11T10:19:32.516Z</time>
      </trkpt>
      <trkpt lat="39.38791" lon="41.0074">
        <ele>1875.625105</ele>
        <time>2021-12-11T10:20:33.525Z</time>
      </trkpt>
      <trkpt lat="39.38731" lon="41.00461">
        <ele>1877.186125</ele>
        <time>2021-12-11T10:21:22.530Z</time>
      </trkpt>
      <trkpt lat="39.38691" lon="41.00183">
        <ele>1871.815526</ele>
        <time>2021-12-11T10:22:02.511Z</time>
      </trkpt>
      <trkpt lat="39.38508" lon="40.9991">
        <ele>1862.563018</ele>
        <time>2021-12-11T10:22:42.511Z</time>
      </trkpt>
      <trkpt lat="39.38445" lon="40.9955">
        <ele>1859.507215</ele>
        <time>2021-12-11T10:23:22.503Z</time>
      </trkpt>
      <trkpt lat="39.38498" lon="40.99281">
        <ele>1861.899265</ele>
        <time>2021-12-11T10:24:18.516Z</time>
      </trkpt>
      <trkpt lat="39.38531" lon="40.99014">
        <ele>1864.312006</ele>
        <time>2021-12-11T10:25:18.531Z</time>
      </trkpt>
      <trkpt lat="39.38421" lon="40.98747">
        <ele>1861.723613</ele>
        <time>2021-12-11T10:26:18.556Z</time>
      </trkpt>
      <trkpt lat="39.38206" lon="40.98641">
        <ele>1861.57917</ele>
        <time>2021-12-11T10:27:10.534Z</time>
      </trkpt>
      <trkpt lat="39.37998" lon="40.98607">
        <ele>1860.231807</ele>
        <time>2021-12-11T10:27:53.536Z</time>
      </trkpt>
      <trkpt lat="39.37807" lon="40.98508">
        <ele>1856.645461</ele>
        <time>2021-12-11T10:28:38.506Z</time>
      </trkpt>
      <trkpt lat="39.37624" lon="40.98377">
        <ele>1851.582707</ele>
        <time>2021-12-11T10:29:19.571Z</time>
      </trkpt>
      <trkpt lat="39.37461" lon="40.98546">
        <ele>1847.666432</ele>
        <time>2021-12-11T10:29:59.506Z</time>
      </trkpt>
      <trkpt lat="39.37278" lon="40.98726">
        <ele>1853.353163</ele>
        <time>2021-12-11T10:31:00.536Z</time>
      </trkpt>
      <trkpt lat="39.37092" lon="40.98831">
        <ele>1858.353231</ele>
        <time>2021-12-11T10:32:19.523Z</time>
      </trkpt>
      <trkpt lat="39.36896" lon="40.98903">
        <ele>1861.204264</ele>
        <time>2021-12-11T10:33:40.525Z</time>
      </trkpt>
      <trkpt lat="39.36706" lon="40.99037">
        <ele>1864.286548</ele>
        <time>2021-12-11T10:34:55.512Z</time>
      </trkpt>
      <trkpt lat="39.36566" lon="40.99252">
        <ele>1861.949434</ele>
        <time>2021-12-11T10:35:55.530Z</time>
      </trkpt>
      <trkpt lat="39.36412" lon="40.99496">
        <ele>1859.385412</ele>
        <time>2021-12-11T10:36:55.529Z</time>
      </trkpt>
      <trkpt lat="39.36296" lon="40.99703">
        <ele>1861.439781</ele>
        <time>2021-12-11T10:37:55.506Z</time>
      </trkpt>
      <trkpt lat="39.36171" lon="40.99917">
        <ele>1867.280316</ele>
        <time>2021-12-11T10:39:18.538Z</time>
      </trkpt>
      <trkpt lat="39.36088" lon="41.00141">
        <ele>1872.634919</ele>
        <time>2021-12-11T10:40:58.515Z</time>
      </trkpt>
      <trkpt lat="39.36048" lon="41.00395">
        <ele>1877.760798</ele>
        <time>2021-12-11T10:42:30.536Z</time>
      </trkpt>
      <trkpt lat="39.35976" lon="41.00657">
        <ele>1879.663008</ele>
        <time>2021-12-11T10:53:46.512Z</time>
      </trkpt>
      <trkpt lat="39.35836" lon="41.00864">
        <ele>1875.576862</ele>
        <time>2021-12-11T10:54:56.513Z</time>
      </trkpt>
      <trkpt lat="39.35699" lon="41.01058">
        <ele>1878.520286</ele>
        <time>2021-12-11T10:56:04.554Z</time>
      </trkpt>
      <trkpt lat="39.35615" lon="41.01293">
        <ele>1883.348231</ele>
        <time>2021-12-11T10:57:09.528Z</time>
      </trkpt>
      <trkpt lat="39.3559" lon="41.01557">
        <ele>1887.796772</ele>
        <time>2021-12-11T10:58:31.536Z</time>
      </trkpt>
      <trkpt lat="39.35581" lon="41.01813">
        <ele>1895.47387</ele>
        <time>2021-12-11T11:00:15.546Z</time>
      </trkpt>
      <trkpt lat="39.35544" lon="41.02061">
        <ele>1904.81525</ele>
        <time>2021-12-11T11:02:15.516Z</time>
      </trkpt>
      <trkpt lat="39.35453" lon="41.02289">
        <ele>1913.141506</ele>
        <time>2021-12-11T11:04:22.521Z</time>
      </trkpt>
      <trkpt lat="39.35341" lon="41.02507">
        <ele>1917.647022</ele>
        <time>2021-12-11T11:05:55.530Z</time>
      </trkpt>
      <trkpt lat="39.35213" lon="41.02752">
        <ele>1917.082892</ele>
        <time>2021-12-11T11:06:55.534Z</time>
      </trkpt>
      <trkpt lat="39.3507" lon="41.03007">
        <ele>1916.796476</ele>
        <time>2021-12-11T11:07:52.529Z</time>
      </trkpt>
      <trkpt lat="39.34954" lon="41.03244">
        <ele>1918.730915</ele>
        <time>2021-12-11T11:08:55.552Z</time>
      </trkpt>
      <trkpt lat="39.3484" lon="41.03464">
        <ele>1922.032889</ele>
        <time>2021-12-11T11:10:03.538Z</time>
      </trkpt>
      <trkpt lat="39.34711" lon="41.03673">
        <ele>1929.96778</ele>
        <time>2021-12-11T11:11:37.550Z</time>
      </trkpt>
      <trkpt lat="39.34573" lon="41.03862">
        <ele>1933.933882</ele>
        <time>2021-12-11T11:13:18.520Z</time>
      </trkpt>
      <trkpt lat="39.344" lon="41.0399">
        <ele>1940.096604</ele>
        <time>2021-12-11T11:14:58.522Z</time>
      </trkpt>
      <trkpt lat="39.34221" lon="41.04102">
        <ele>1947.245882</ele>
        <time>2021-12-11T11:16:39.549Z</time>
      </trkpt>
      <trkpt lat="39.34076" lon="41.0428">
        <ele>1951.272676</ele>
        <time>2021-12-11T11:18:20.554Z</time>
      </trkpt>
      <trkpt lat="39.33989" lon="41.04512">
        <ele>1958.208448</ele>
        <time>2021-12-11T11:20:00.529Z</time>
      </trkpt>
      <trkpt lat="39.33913" lon="41.04755">
        <ele>1962.586777</ele>
        <time>2021-12-11T11:21:40.584Z</time>
      </trkpt>
      <trkpt lat="39.33831" lon="41.04993">
        <ele>1967.973644</ele>
        <time>2021-12-11T11:23:16.567Z</time>
      </trkpt>
      <trkpt lat="39.33702" lon="41.0521">
        <ele>1969.843433</ele>
        <time>2021-12-11T11:24:34.543Z</time>
      </trkpt>
      <trkpt lat="39.33474" lon="41.05274">
        <ele>1967.481851</ele>
        <time>2021-12-11T11:25:23.554Z</time>
      </trkpt>
      <trkpt lat="39.33239" lon="41.05191">
        <ele>1954.124609</ele>
        <time>2021-12-11T11:25:43.531Z</time>
      </trkpt>
      <trkpt lat="39.33017" lon="41.05214">
        <ele>1936.879741</ele>
        <time>2021-12-11T11:26:03.547Z</time>
      </trkpt>
      <trkpt lat="39.32818" lon="41.05334">
        <ele>1923.568306</ele>
        <time>2021-12-11T11:26:23.549Z</time>
      </trkpt>
      <trkpt lat="39.32614" lon="41.05446">
        <ele>1912.925043</ele>
        <time>2021-12-11T11:26:43.553Z</time>
      </trkpt>
      <trkpt lat="39.32379" lon="41.05496">
        <ele>1901.568278</ele>
        <time>2021-12-11T11:27:03.537Z</time>
      </trkpt>
      <trkpt lat="39.32158" lon="41.05521">
        <ele>1890.495495</ele>
        <time>2021-12-11T11:27:23.548Z</time>
      </trkpt>
      <trkpt lat="39.31957" lon="41.05562">
        <ele>1880.801033</ele>
        <time>2021-12-11T11:27:43.538Z</time>
      </trkpt>
      <trkpt lat="39.31748" lon="41.05574">
        <ele>1870.963703</ele>
        <time>2021-12-11T11:28:03.550Z</time>
      </trkpt>
      <trkpt lat="39.31551" lon="41.05502">
        <ele>1863.5458</ele>
        <time>2021-12-11T11:28:23.543Z</time>
      </trkpt>
      <trkpt lat="39.31379" lon="41.05362">
        <ele>1857.347848</ele>
        <time>2021-12-11T11:28:44.516Z</time>
      </trkpt>
      <trkpt lat="39.31193" lon="41.05141">
        <ele>1854.600531</ele>
        <time>2021-12-11T11:29:24.555Z</time>
      </trkpt>
      <trkpt lat="39.31015" lon="41.04929">
        <ele>1852.266156</ele>
        <time>2021-12-11T11:30:05.526Z</time>
      </trkpt>
      <trkpt lat="39.30849" lon="41.04669">
        <ele>1839.254219</ele>
        <time>2021-12-11T11:30:34.544Z</time>
      </trkpt>
      <trkpt lat="39.30757" lon="41.0443">
        <ele>1830.227182</ele>
        <time>2021-12-11T11:30:56.536Z</time>
      </trkpt>
      <trkpt lat="39.30677" lon="41.04178">
        <ele>1821.468582</ele>
        <time>2021-12-11T11:31:16.568Z</time>
      </trkpt>
      <trkpt lat="39.30597" lon="41.03905">
        <ele>1811.816715</ele>
        <time>2021-12-11T11:31:37.545Z</time>
      </trkpt>
      <trkpt lat="39.30517" lon="41.03623">
        <ele>1806.573577</ele>
        <time>2021-12-11T11:32:02.552Z</time>
      </trkpt>
      <trkpt lat="39.3043" lon="41.03325">
        <ele>1807.606212</ele>
        <time>2021-12-11T11:32:50.591Z</time>
      </trkpt>
      <trkpt lat="39.30338" lon="41.03015">
        <ele>1808.098979</ele>
        <time>2021-12-11T11:33:50.543Z</time>
      </trkpt>
      <trkpt lat="39.30262" lon="41.02738">
        <ele>1806.986485</ele>
        <time>2021-12-11T11:34:41.555Z</time>
      </trkpt>
      <trkpt lat="39.30181" lon="41.02456">
        <ele>1809.875716</ele>
        <time>2021-12-11T11:35:39.551Z</time>
      </trkpt>
      <trkpt lat="39.30107" lon="41.02207">
        <ele>1815.274927</ele>
        <time>2021-12-11T11:36:49.539Z</time>
      </trkpt>
      <trkpt lat="39.30041" lon="41.01959">
        <ele>1819.772256</ele>
        <time>2021-12-11T11:38:09.547Z</time>
      </trkpt>
      <trkpt lat="39.29975" lon="41.01711">
        <ele>1830.243004</ele>
        <time>2021-12-11T11:39:35.553Z</time>
      </trkpt>
      <trkpt lat="39.29858" lon="41.01507">
        <ele>1841.426844</ele>
        <time>2021-12-11T11:41:11.552Z</time>
      </trkpt>
      <trkpt lat="39.29859" lon="41.01293">
        <ele>1851.704379</ele>
        <time>2021-12-11T11:43:01.583Z</time>
      </trkpt>
      <trkpt lat="39.29722" lon="41.01225">
        <ele>1854.604916</ele>
        <time>2021-12-11T11:47:26.528Z</time>
      </trkpt>
      <trkpt lat="39.2963" lon="41.01082">
        <ele>1850.473767</ele>
        <time>2021-12-11T11:49:04.536Z</time>
      </trkpt>
      <trkpt lat="39.29687" lon="41.01142">
        <ele>1850.473767</ele>
        <time>2021-12-11T11:51:51.273Z</time>
      </trkpt>
    </trkseg>
  </trk>
</gpx>